Time;durP1;ratioP1;P1;durP2;ratioP2;P2;SDS_P1;SDS_P2;PMS_P1;PMS_P2;Temp;Humidity;BMP_temperature;BMP_pressure;BME280_temperature;BME280_humidity;BME280_pressure;Samples;Min_cycle;Max_cycle;Signal;HPM_P1;HPM_P2
2021/07/15 00:01:56;;;;;;;1.20;0.70;;;18.20;92.90;;;;;;5057516;28;20661;-84
2021/07/15 00:04:22;;;;;;;5.10;0.98;;;18.30;92.90;;;;;;5057243;28;20782;-84
2021/07/15 00:06:48;;;;;;;5.13;0.90;;;18.20;93.20;;;;;;5057326;28;20189;-84
2021/07/15 00:09:15;;;;;;;1.03;0.70;;;18.30;93.10;;;;;;5057125;28;20475;-84
2021/07/15 00:11:46;;;;;;;1.60;0.75;;;18.30;92.40;;;;;;5057266;28;20517;-84
2021/07/15 00:14:12;;;;;;;0.85;0.63;;;18.30;92.70;;;;;;5057654;28;20180;-84
2021/07/15 00:16:39;;;;;;;0.95;0.60;;;18.30;93.10;;;;;;5057151;28;20637;-84
2021/07/15 00:19:07;;;;;;;1.02;0.57;;;18.30;92.60;;;;;;5057052;28;20188;-84
2021/07/15 00:21:33;;;;;;;3.35;0.50;;;18.20;92.90;;;;;;5056800;28;20589;-84
2021/07/15 00:23:59;;;;;;;0.50;0.40;;;18.20;93.60;;;;;;5056708;28;20336;-85
2021/07/15 00:26:26;;;;;;;0.60;0.50;;;18.10;93.80;;;;;;5056622;28;20250;-84
2021/07/15 00:28:52;;;;;;;0.98;0.70;;;18.00;95.10;;;;;;5056571;28;20169;-84
2021/07/15 00:31:18;;;;;;;1.70;0.70;;;18.00;95.80;;;;;;5056818;28;20250;-84
2021/07/15 00:33:45;;;;;;;1.00;0.70;;;17.90;96.70;;;;;;5057275;28;20176;-84
2021/07/15 00:36:11;;;;;;;0.60;0.57;;;17.80;97.90;;;;;;5056245;28;20175;-85
2021/07/15 00:38:38;;;;;;;2.08;0.70;;;17.70;98.40;;;;;;5056491;28;20629;-84
2021/07/15 00:41:05;;;;;;;1.63;0.73;;;17.60;98.80;;;;;;5056048;28;20216;-85
2021/07/15 00:43:31;;;;;;;1.88;0.60;;;17.60;99.10;;;;;;5055408;28;20193;-84
2021/07/15 00:45:56;;;;;;;0.93;0.70;;;17.60;99.10;;;;;;5056222;28;20181;-84
2021/07/15 00:48:22;;;;;;;1.53;0.70;;;17.50;99.10;;;;;;5055615;28;20478;-84
2021/07/15 00:50:48;;;;;;;1.02;0.70;;;17.40;99.10;;;;;;5054883;28;20201;-84
2021/07/15 00:53:14;;;;;;;1.20;0.90;;;17.40;99.10;;;;;;5055472;28;20246;-84
2021/07/15 00:55:44;;;;;;;0.60;0.50;;;17.30;99.10;;;;;;5054753;28;20408;-84
2021/07/15 00:58:12;;;;;;;1.33;0.70;;;17.30;99.10;;;;;;5055102;28;20573;-84
2021/07/15 01:00:40;;;;;;;2.30;1.00;;;17.30;99.10;;;;;;5055494;28;20234;-84
2021/07/15 01:03:08;;;;;;;1.20;0.77;;;17.30;99.10;;;;;;5055983;28;20193;-84
2021/07/15 01:05:36;;;;;;;1.67;0.82;;;17.20;99.10;;;;;;5055554;28;20189;-84
2021/07/15 01:08:04;;;;;;;1.20;0.85;;;17.20;99.10;;;;;;5055382;28;20221;-84
2021/07/15 01:10:40;;;;;;;1.88;0.95;;;17.20;99.10;;;;;;5055366;28;20201;-84
2021/07/15 01:13:42;;;;;;;1.40;0.80;;;17.20;99.10;;;;;;5054799;28;20653;-84
2021/07/15 01:16:15;;;;;;;2.55;0.90;;;17.20;99.10;;;;;;5055407;28;20169;-84
2021/07/15 01:18:53;;;;;;;3.00;1.00;;;17.20;99.10;;;;;;5055031;28;20306;-84
2021/07/15 01:21:46;;;;;;;2.55;1.20;;;17.20;99.10;;;;;;5054869;28;20606;-84
2021/07/15 01:24:27;;;;;;;6.75;1.20;;;17.10;99.10;;;;;;5055442;28;20176;-84
2021/07/15 01:27:30;;;;;;;3.72;1.45;;;17.10;99.10;;;;;;5054819;28;20192;-84
2021/07/15 01:30:15;;;;;;;5.20;2.17;;;17.10;99.10;;;;;;5054353;28;20233;-84
2021/07/15 01:33:16;;;;;;;2.15;1.30;;;17.10;99.10;;;;;;5053744;28;20226;-84
2021/07/15 01:35:45;;;;;;;1.92;1.02;;;17.10;99.10;;;;;;5054417;28;20169;-84
2021/07/15 01:38:13;;;;;;;2.50;0.90;;;17.10;99.10;;;;;;5054102;28;20180;-84
2021/07/15 01:41:06;;;;;;;1.80;1.05;;;17.10;99.10;;;;;;5054754;28;20230;-84
2021/07/15 01:43:38;;;;;;;5.97;1.05;;;17.10;99.10;;;;;;5053502;28;20173;-85
2021/07/15 01:46:06;;;;;;;3.35;1.50;;;17.00;99.10;;;;;;5054137;28;20201;-83
2021/07/15 01:48:33;;;;;;;1.10;0.70;;;17.10;99.10;;;;;;5054560;28;20204;-84
2021/07/15 01:51:00;;;;;;;2.45;1.40;;;17.10;99.10;;;;;;5053674;28;20213;-84
2021/07/15 01:53:26;;;;;;;1.60;0.90;;;17.10;99.10;;;;;;5053827;28;20217;-84
2021/07/15 01:55:55;;;;;;;6.05;1.17;;;17.10;99.10;;;;;;5054109;28;20665;-84
2021/07/15 01:58:22;;;;;;;2.35;1.20;;;17.00;99.10;;;;;;5054083;28;20651;-85
2021/07/15 02:00:48;;;;;;;1.90;1.02;;;17.00;99.10;;;;;;5053925;28;20180;-84
2021/07/15 02:03:15;;;;;;;5.20;1.10;;;17.00;99.10;;;;;;5053995;28;20756;-85
2021/07/15 02:05:43;;;;;;;5.95;1.30;;;17.10;99.10;;;;;;5053737;28;20195;-84
2021/07/15 02:08:11;;;;;;;6.85;1.00;;;17.10;99.10;;;;;;5054614;28;20192;-84
2021/07/15 02:10:37;;;;;;;1.63;0.90;;;17.10;99.10;;;;;;5054476;28;20824;-84
2021/07/15 02:13:07;;;;;;;2.45;0.93;;;17.10;99.10;;;;;;5053231;28;20193;-84
2021/07/15 02:15:34;;;;;;;2.03;1.27;;;17.10;99.10;;;;;;5053521;28;20192;-84
2021/07/15 02:18:00;;;;;;;2.97;1.00;;;17.10;99.10;;;;;;5054064;28;20169;-84
2021/07/15 02:20:26;;;;;;;1.30;0.98;;;17.10;99.10;;;;;;5054402;28;20184;-85
2021/07/15 02:22:53;;;;;;;2.03;1.00;;;17.10;99.10;;;;;;5052736;28;20204;-84
2021/07/15 02:25:25;;;;;;;2.72;0.98;;;17.10;99.10;;;;;;5053255;28;20176;-84
2021/07/15 02:27:52;;;;;;;1.83;1.05;;;17.10;99.10;;;;;;5052944;28;20173;-84
2021/07/15 02:30:20;;;;;;;2.65;0.85;;;17.10;99.10;;;;;;5052442;28;20203;-84
2021/07/15 02:32:55;;;;;;;4.95;0.93;;;17.10;99.10;;;;;;5052920;28;20250;-84
2021/07/15 02:35:22;;;;;;;1.08;0.70;;;17.10;99.10;;;;;;5054337;28;20173;-84
2021/07/15 02:37:51;;;;;;;3.13;0.90;;;17.10;99.10;;;;;;5055675;28;20176;-84
2021/07/15 02:40:17;;;;;;;0.90;0.50;;;17.10;99.10;;;;;;5055732;28;20535;-84
2021/07/15 02:42:44;;;;;;;2.55;1.23;;;17.00;99.10;;;;;;5054993;28;20193;-84
2021/07/15 02:45:13;;;;;;;1.30;1.10;;;17.10;99.10;;;;;;5055330;28;20169;-84
2021/07/15 02:47:42;;;;;;;1.42;0.82;;;17.10;99.10;;;;;;5055978;28;20169;-84
2021/07/15 02:50:10;;;;;;;1.35;0.90;;;17.20;99.10;;;;;;5054948;28;20276;-84
2021/07/15 02:52:36;;;;;;;2.22;0.98;;;17.10;99.10;;;;;;5053332;28;20546;-85
2021/07/15 02:55:02;;;;;;;2.30;0.70;;;17.10;99.10;;;;;;5053747;28;20171;-84
2021/07/15 02:57:35;;;;;;;2.65;0.95;;;17.10;99.10;;;;;;5053890;28;20412;-84
2021/07/15 03:00:05;;;;;;;1.55;1.20;;;17.10;99.10;;;;;;5054005;28;20175;-84
2021/07/15 03:02:42;;;;;;;4.53;1.52;;;17.10;99.10;;;;;;5054608;28;20742;-84
2021/07/15 03:05:12;;;;;;;1.85;0.93;;;17.10;99.10;;;;;;5054244;28;20173;-84
2021/07/15 03:07:56;;;;;;;1.27;0.80;;;17.20;99.10;;;;;;5054906;28;20177;-84
2021/07/15 03:10:22;;;;;;;3.55;0.93;;;17.20;99.10;;;;;;5054001;28;20201;-83
2021/07/15 03:12:51;;;;;;;1.38;0.80;;;17.10;99.10;;;;;;5053052;28;20201;-83
2021/07/15 03:15:17;;;;;;;0.95;0.70;;;17.00;99.10;;;;;;5053519;28;20260;-83
2021/07/15 03:17:54;;;;;;;1.83;0.95;;;17.10;99.10;;;;;;5052974;28;20584;-84
2021/07/15 03:20:32;;;;;;;2.45;1.00;;;17.10;99.10;;;;;;5055986;28;20169;-84
2021/07/15 03:23:03;;;;;;;0.85;0.60;;;17.10;99.10;;;;;;5056387;28;20244;-84
2021/07/15 03:25:30;;;;;;;2.25;0.65;;;17.10;99.10;;;;;;5056358;28;20231;-84
2021/07/15 03:27:58;;;;;;;0.70;0.50;;;17.00;99.10;;;;;;5056862;28;20194;-84
2021/07/15 03:30:27;;;;;;;1.33;0.60;;;17.10;99.10;;;;;;5056644;28;20201;-84
2021/07/15 03:32:55;;;;;;;2.58;0.70;;;17.10;99.10;;;;;;5056425;28;20195;-84
2021/07/15 03:35:22;;;;;;;1.58;0.65;;;17.10;99.10;;;;;;5056237;28;20264;-83
2021/07/15 03:37:49;;;;;;;0.90;0.60;;;17.10;99.10;;;;;;5056593;28;20173;-83
2021/07/15 03:40:22;;;;;;;0.80;0.60;;;17.10;99.10;;;;;;5057610;28;20264;-83
2021/07/15 03:42:49;;;;;;;3.95;0.70;;;17.10;99.10;;;;;;5057012;28;20681;-83
2021/07/15 03:45:17;;;;;;;1.00;0.82;;;17.20;99.10;;;;;;5058111;28;20169;-82
2021/07/15 03:47:53;;;;;;;3.17;0.80;;;17.10;99.10;;;;;;5058138;28;20184;-83
2021/07/15 03:50:25;;;;;;;3.70;0.90;;;17.10;99.10;;;;;;5057491;28;20196;-81
2021/07/15 03:52:55;;;;;;;1.17;0.70;;;17.10;99.10;;;;;;5060095;28;20193;-81
2021/07/15 03:55:27;;;;;;;2.00;0.70;;;17.20;99.10;;;;;;5059058;28;20158;-81
2021/07/15 03:57:53;;;;;;;0.70;0.52;;;17.20;99.10;;;;;;5058291;28;20256;-81
2021/07/15 04:00:24;;;;;;;0.80;0.70;;;17.20;99.10;;;;;;5058730;28;20269;-82
2021/07/15 04:03:01;;;;;;;0.65;0.60;;;17.20;99.10;;;;;;5058866;28;20605;-81
2021/07/15 04:05:32;;;;;;;1.45;0.80;;;17.20;99.10;;;;;;5058248;28;20189;-82
2021/07/15 04:08:00;;;;;;;2.15;0.60;;;17.20;99.10;;;;;;5057411;28;20181;-82
2021/07/15 04:10:29;;;;;;;0.70;0.60;;;17.30;99.10;;;;;;5057805;28;20204;-82
2021/07/15 04:12:57;;;;;;;0.70;0.60;;;17.30;99.10;;;;;;5059174;28;20185;-81
2021/07/15 04:15:49;;;;;;;0.73;0.60;;;17.30;99.10;;;;;;5059292;28;20172;-81
2021/07/15 04:18:16;;;;;;;4.72;0.50;;;17.30;99.10;;;;;;5058215;28;20180;-82
2021/07/15 04:20:44;;;;;;;1.70;0.65;;;17.30;99.10;;;;;;5057949;28;20705;-82
2021/07/15 04:23:12;;;;;;;1.20;0.80;;;17.30;99.10;;;;;;5058552;28;20200;-82
2021/07/15 04:25:39;;;;;;;2.20;0.70;;;17.30;99.10;;;;;;5057725;28;20181;-82
2021/07/15 04:28:07;;;;;;;1.90;0.57;;;17.30;99.10;;;;;;5057528;28;20180;-82
2021/07/15 04:30:33;;;;;;;1.35;0.70;;;17.20;99.10;;;;;;5056678;28;20224;-81
2021/07/15 04:33:08;;;;;;;0.88;0.60;;;17.20;99.10;;;;;;5057065;28;20221;-82
2021/07/15 04:35:34;;;;;;;1.83;0.60;;;17.30;99.10;;;;;;5058394;28;20165;-83
2021/07/15 04:38:02;;;;;;;3.00;0.70;;;17.30;99.10;;;;;;5060241;28;20264;-81
2021/07/15 04:40:29;;;;;;;0.95;0.50;;;17.30;99.10;;;;;;5057182;28;20590;-81
2021/07/15 04:43:03;;;;;;;1.10;0.65;;;17.30;99.10;;;;;;5056922;28;20189;-81
2021/07/15 04:45:30;;;;;;;0.90;0.55;;;17.30;99.10;;;;;;5057184;28;20169;-81
2021/07/15 04:47:57;;;;;;;1.85;0.60;;;17.30;99.10;;;;;;5058014;28;20174;-82
2021/07/15 04:50:30;;;;;;;0.70;0.52;;;17.30;99.10;;;;;;5057067;28;20196;-82
2021/07/15 04:52:59;;;;;;;1.63;0.50;;;17.30;99.10;;;;;;5057219;28;20657;-82
2021/07/15 04:55:26;;;;;;;3.60;1.38;;;17.30;99.10;;;;;;5057339;28;20166;-82
2021/07/15 04:57:53;;;;;;;2.72;1.27;;;17.40;99.10;;;;;;5056968;28;20172;-83
2021/07/15 05:00:20;;;;;;;3.47;1.25;;;17.40;99.10;;;;;;5056327;28;20539;-82
2021/07/15 05:02:54;;;;;;;2.67;1.02;;;17.30;99.10;;;;;;5055538;28;20228;-82
2021/07/15 05:05:20;;;;;;;1.20;0.80;;;17.40;99.10;;;;;;5056485;28;20193;-82
2021/07/15 05:07:46;;;;;;;1.85;0.88;;;17.30;99.10;;;;;;5133498;22;20274;-77
2021/07/15 05:10:11;;;;;;;1.40;0.63;;;17.40;99.10;;;;;;5051278;28;20169;-74
2021/07/15 05:12:39;;;;;;;1.57;0.90;;;17.40;99.10;;;;;;5051326;28;20454;-75
2021/07/15 05:15:10;;;;;;;1.13;0.73;;;17.40;99.10;;;;;;5050876;28;20498;-74
2021/07/15 05:17:37;;;;;;;1.17;0.75;;;17.40;99.10;;;;;;5051060;28;20169;-75
2021/07/15 05:20:09;;;;;;;4.60;1.42;;;17.40;99.10;;;;;;5050937;28;20176;-75
2021/07/15 05:22:36;;;;;;;2.45;0.95;;;17.50;99.10;;;;;;5051058;28;20250;-75
2021/07/15 05:25:03;;;;;;;1.98;0.50;;;17.50;99.10;;;;;;5050927;28;20165;-75
2021/07/15 05:27:31;;;;;;;2.65;0.60;;;17.60;99.10;;;;;;5050858;28;20173;-75
2021/07/15 05:29:56;;;;;;;2.65;0.80;;;17.60;99.10;;;;;;5051174;28;20231;-75
2021/07/15 05:32:22;;;;;;;1.40;0.93;;;17.70;98.80;;;;;;5050920;28;20200;-75
2021/07/15 05:34:51;;;;;;;2.10;0.60;;;17.70;99.00;;;;;;5051009;28;20169;-76
2021/07/15 05:37:17;;;;;;;0.68;0.50;;;17.70;98.30;;;;;;5050960;28;20184;-75
2021/07/15 05:39:45;;;;;;;3.58;0.82;;;17.80;97.90;;;;;;5052093;28;20165;-76
2021/07/15 05:42:12;;;;;;;4.32;0.93;;;17.80;97.80;;;;;;5049742;28;20200;-76
2021/07/15 05:44:39;;;;;;;1.25;0.73;;;17.80;98.40;;;;;;5050879;28;20223;-76
2021/07/15 05:47:07;;;;;;;2.45;0.90;;;17.80;98.00;;;;;;5051799;28;20169;-76
2021/07/15 05:49:36;;;;;;;1.08;0.70;;;17.90;97.40;;;;;;5050534;28;20173;-76
2021/07/15 05:52:08;;;;;;;1.08;0.52;;;17.90;97.50;;;;;;5050442;28;20263;-76
2021/07/15 05:54:34;;;;;;;0.70;0.60;;;17.90;97.90;;;;;;5050593;28;20208;-76
2021/07/15 05:57:00;;;;;;;1.38;0.60;;;18.00;97.70;;;;;;5050251;28;20218;-76
2021/07/15 05:59:26;;;;;;;2.60;0.80;;;18.10;97.90;;;;;;5050634;28;20173;-76
2021/07/15 06:01:52;;;;;;;1.93;0.70;;;18.20;97.30;;;;;;5051688;28;20435;-76
2021/07/15 06:04:17;;;;;;;1.23;0.80;;;18.30;96.70;;;;;;5050448;28;20177;-76
2021/07/15 06:09:22;;;;;;;2.35;0.88;;;18.40;96.50;;;;;;5151424;27;20532;-75
2021/07/15 06:11:48;;;;;;;6.50;0.90;;;18.40;96.60;;;;;;5106612;28;20195;-75
2021/07/15 06:14:14;;;;;;;1.37;1.00;;;18.40;96.70;;;;;;5092046;28;20173;-76
2021/07/15 06:16:40;;;;;;;3.60;0.80;;;18.50;96.60;;;;;;5092077;28;20429;-76
2021/07/15 06:19:05;;;;;;;2.80;0.80;;;18.50;96.70;;;;;;5091910;28;20220;-78
2021/07/15 06:21:31;;;;;;;1.13;0.60;;;18.60;96.50;;;;;;5091840;28;20486;-76
2021/07/15 06:23:57;;;;;;;2.07;0.50;;;18.60;95.60;;;;;;5092034;28;20175;-75
2021/07/15 06:26:23;;;;;;;3.40;0.70;;;18.70;95.20;;;;;;5091778;28;20417;-76
2021/07/15 06:28:49;;;;;;;3.60;1.93;;;18.80;94.70;;;;;;5091844;28;20987;-77
2021/07/15 06:31:15;;;;;;;7.60;2.43;;;18.80;95.20;;;;;;5092011;28;20454;-76
2021/07/15 06:33:40;;;;;;;5.53;0.97;;;18.80;94.90;;;;;;5091714;28;20179;-76
2021/07/15 06:36:07;;;;;;;1.20;0.70;;;18.90;95.50;;;;;;5091533;28;20401;-76
2021/07/15 06:38:35;;;;;;;2.22;0.50;;;19.00;94.10;;;;;;5091515;28;20414;-76
2021/07/15 06:41:04;;;;;;;3.35;1.15;;;19.10;93.40;;;;;;5091463;28;20175;-76
2021/07/15 06:43:30;;;;;;;10.73;1.27;;;19.20;93.70;;;;;;5091444;28;20195;-76
2021/07/15 06:45:56;;;;;;;1.45;1.08;;;19.20;93.80;;;;;;5091466;28;20171;-76
2021/07/15 06:48:22;;;;;;;3.90;0.80;;;19.30;94.00;;;;;;5091453;28;20205;-75
2021/07/15 06:50:48;;;;;;;4.97;0.73;;;19.30;93.20;;;;;;5091460;28;20409;-76
2021/07/15 06:53:14;;;;;;;1.77;0.70;;;19.40;92.40;;;;;;5091361;28;20964;-76
2021/07/15 06:55:40;;;;;;;0.75;0.50;;;19.50;93.20;;;;;;5091175;28;20409;-77
2021/07/15 06:58:06;;;;;;;1.95;0.80;;;19.60;91.70;;;;;;5091213;28;20669;-78
2021/07/15 07:00:32;;;;;;;3.37;0.80;;;19.60;91.00;;;;;;5091139;28;20167;-77
2021/07/15 07:02:58;;;;;;;2.05;0.80;;;19.60;91.60;;;;;;5091207;28;20195;-77
2021/07/15 07:05:24;;;;;;;1.07;0.60;;;19.70;91.40;;;;;;5090975;28;20259;-77
2021/07/15 07:07:49;;;;;;;4.60;0.70;;;19.70;91.10;;;;;;5091010;28;20214;-77
2021/07/15 07:10:17;;;;;;;2.83;0.60;;;19.70;90.10;;;;;;5092205;28;20409;-78
2021/07/15 07:12:43;;;;;;;1.02;0.60;;;19.70;90.40;;;;;;5094562;28;20187;-79
2021/07/15 07:15:11;;;;;;;1.45;0.57;;;19.70;90.40;;;;;;5093124;28;20164;-78
2021/07/15 07:17:37;;;;;;;1.10;0.60;;;19.60;91.80;;;;;;5092039;28;20462;-77
2021/07/15 07:20:08;;;;;;;0.70;0.67;;;19.60;90.60;;;;;;5082067;28;20178;-77
2021/07/15 07:22:35;;;;;;;0.60;0.50;;;19.60;92.10;;;;;;5078357;28;20434;-77
2021/07/15 07:25:05;;;;;;;2.25;1.05;;;19.50;91.60;;;;;;5078177;28;20639;-79
2021/07/15 07:27:32;;;;;;;0.80;0.52;;;19.50;92.50;;;;;;5078125;28;20555;-77
2021/07/15 07:29:58;;;;;;;1.98;0.80;;;19.60;91.80;;;;;;5077481;28;20168;-77
2021/07/15 07:32:24;;;;;;;1.73;0.50;;;19.70;92.00;;;;;;5077270;28;20614;-77
2021/07/15 07:34:50;;;;;;;1.33;0.60;;;19.80;90.20;;;;;;5077446;28;20167;-77
2021/07/15 07:37:16;;;;;;;2.27;0.60;;;19.90;90.10;;;;;;5077051;28;20172;-77
2021/07/15 07:39:42;;;;;;;2.55;0.60;;;20.00;91.00;;;;;;5077243;28;20176;-78
2021/07/15 07:42:08;;;;;;;1.45;0.60;;;20.10;90.30;;;;;;5077304;28;20196;-77
2021/07/15 07:44:34;;;;;;;2.50;0.67;;;20.20;89.60;;;;;;5077238;28;20199;-77
2021/07/15 07:47:00;;;;;;;1.53;0.60;;;20.40;88.70;;;;;;5076890;28;20964;-77
2021/07/15 07:49:26;;;;;;;3.13;0.60;;;20.40;85.90;;;;;;5077062;28;20749;-77
2021/07/15 07:51:52;;;;;;;0.70;0.50;;;20.50;86.40;;;;;;5076992;28;20433;-75
2021/07/15 07:54:18;;;;;;;3.08;0.73;;;20.40;84.40;;;;;;5076820;28;20459;-75
2021/07/15 07:56:43;;;;;;;1.20;0.57;;;20.10;85.80;;;;;;5076934;28;20251;-75
2021/07/15 07:59:10;;;;;;;1.33;0.70;;;19.90;86.60;;;;;;5076844;28;20171;-75
2021/07/15 08:01:35;;;;;;;0.82;0.65;;;19.90;87.00;;;;;;5076673;28;20196;-75
2021/07/15 08:04:02;;;;;;;5.47;0.80;;;19.90;87.30;;;;;;5076815;28;20210;-75
2021/07/15 08:06:34;;;;;;;1.00;0.65;;;19.70;88.30;;;;;;5076671;28;20413;-75
2021/07/15 08:09:00;;;;;;;1.15;0.55;;;19.80;88.80;;;;;;5076518;28;20203;-75
2021/07/15 08:11:28;;;;;;;1.08;0.63;;;19.90;88.50;;;;;;5076574;28;20608;-75
2021/07/15 08:13:54;;;;;;;0.63;0.57;;;19.90;88.30;;;;;;5076600;28;20715;-74
2021/07/15 08:16:20;;;;;;;1.23;0.70;;;19.80;88.70;;;;;;5076294;28;20178;-75
2021/07/15 08:18:45;;;;;;;1.40;0.67;;;19.80;88.90;;;;;;5076508;28;20260;-75
2021/07/15 08:21:11;;;;;;;0.70;0.50;;;19.80;88.90;;;;;;5076292;28;20180;-75
2021/07/15 08:23:37;;;;;;;0.97;0.50;;;19.80;89.10;;;;;;5076365;28;20179;-75
2021/07/15 08:26:03;;;;;;;0.83;0.60;;;19.90;87.30;;;;;;5076061;28;20171;-75
2021/07/15 08:28:28;;;;;;;1.47;0.70;;;20.00;87.70;;;;;;5076163;28;20200;-75
2021/07/15 08:30:54;;;;;;;2.77;0.90;;;20.10;86.00;;;;;;5075216;28;20405;-75
2021/07/15 08:33:20;;;;;;;1.03;0.60;;;20.10;86.20;;;;;;5076359;28;20724;-75
2021/07/15 08:35:46;;;;;;;2.77;0.73;;;20.10;86.30;;;;;;5076257;28;20194;-75
2021/07/15 08:38:11;;;;;;;1.33;0.70;;;20.20;86.20;;;;;;5075961;28;20651;-75
2021/07/15 08:40:37;;;;;;;1.10;0.77;;;20.30;86.00;;;;;;5076022;28;20313;-75
2021/07/15 08:43:04;;;;;;;1.00;0.70;;;20.20;85.30;;;;;;5075946;28;20196;-75
2021/07/15 08:45:29;;;;;;;1.00;0.60;;;20.30;86.40;;;;;;5076067;28;20176;-75
2021/07/15 08:47:59;;;;;;;1.60;0.90;;;20.40;86.00;;;;;;5075931;28;20199;-75
2021/07/15 08:50:25;;;;;;;1.75;0.88;;;20.50;85.80;;;;;;5075902;28;20434;-75
2021/07/15 08:52:51;;;;;;;5.30;1.07;;;20.70;85.20;;;;;;5075525;28;20226;-75
2021/07/15 08:56:36;;;;;;;1.63;0.80;;;20.70;85.10;;;;;;5075557;28;20817;-75
2021/07/15 08:58:05;;;;;;;3.08;0.80;;;20.70;84.20;;;;;;5093670;28;20421;-75
2021/07/15 09:00:31;;;;;;;1.97;0.90;;;20.70;84.80;;;;;;5075735;28;20176;-74
2021/07/15 09:02:57;;;;;;;1.23;0.83;;;20.60;85.30;;;;;;5075725;28;20434;-75
2021/07/15 09:05:23;;;;;;;2.60;0.70;;;20.60;86.00;;;;;;5093527;28;20797;-75
2021/07/15 09:07:49;;;;;;;2.10;1.03;;;20.60;86.00;;;;;;5075422;28;20203;-75
2021/07/15 09:10:15;;;;;;;5.30;0.88;;;20.70;85.90;;;;;;5076536;28;20175;-74
2021/07/15 09:12:43;;;;;;;2.60;0.90;;;20.80;86.40;;;;;;5076596;28;20270;-76
2021/07/15 09:15:14;;;;;;;3.10;0.80;;;21.00;84.60;;;;;;5076289;28;20896;-75
2021/07/15 09:17:40;;;;;;;2.25;0.70;;;21.20;84.20;;;;;;5075931;28;20175;-75
2021/07/15 09:20:09;;;;;;;6.05;0.95;;;21.40;84.60;;;;;;5076026;28;20551;-76
2021/07/15 09:22:52;;;;;;;3.05;0.90;;;21.60;80.50;;;;;;5076270;28;20196;-77
2021/07/15 09:25:18;;;;;;;1.42;0.70;;;21.60;81.40;;;;;;5076573;28;20181;-76
2021/07/15 09:27:49;;;;;;;2.23;1.17;;;21.80;81.30;;;;;;5076737;28;20195;-76
2021/07/15 09:30:17;;;;;;;2.08;0.90;;;21.90;80.10;;;;;;5077226;28;20398;-76
2021/07/15 09:32:53;;;;;;;1.73;0.88;;;21.90;78.80;;;;;;5076773;28;20283;-76
2021/07/15 09:35:31;;;;;;;1.98;0.90;;;21.70;79.90;;;;;;5076655;28;20164;-76
2021/07/15 09:38:09;;;;;;;1.75;0.70;;;21.80;79.40;;;;;;5076610;28;20171;-76
2021/07/15 09:40:50;;;;;;;2.90;0.80;;;21.80;79.50;;;;;;5076520;28;20172;-76
2021/07/15 09:43:35;;;;;;;1.90;0.82;;;21.80;79.50;;;;;;5076141;28;20568;-76
2021/07/15 09:46:14;;;;;;;4.50;1.00;;;21.90;80.20;;;;;;5076369;28;20179;-77
2021/07/15 09:48:45;;;;;;;12.82;1.30;;;;;;;;;;5076061;28;20184;-76
2021/07/15 09:51:13;;;;;;;4.78;0.70;;;22.10;78.40;;;;;;5075941;28;20243;-77
2021/07/15 09:53:42;;;;;;;1.67;0.70;;;22.10;79.60;;;;;;5076099;28;20170;-76
2021/07/15 09:56:16;;;;;;;2.20;0.90;;;22.10;79.60;;;;;;5075869;28;20199;-75
2021/07/15 09:58:48;;;;;;;2.35;0.90;;;22.20;78.90;;;;;;5075858;28;20160;-75
2021/07/15 10:01:20;;;;;;;3.10;1.65;;;21.90;78.10;;;;;;5075683;28;20207;-76
2021/07/15 10:03:56;;;;;;;5.90;1.02;;;21.80;79.90;;;;;;5075480;28;20172;-76
2021/07/15 10:06:22;;;;;;;1.98;1.00;;;21.70;80.20;;;;;;5075519;28;20171;-77
2021/07/15 10:08:53;;;;;;;6.03;1.10;;;21.70;79.60;;;;;;5075349;28;20195;-75
2021/07/15 10:11:30;;;;;;;5.30;1.10;;;21.60;79.90;;;;;;5075825;28;20262;-76
2021/07/15 10:14:09;;;;;;;1.40;0.75;;;21.70;80.60;;;;;;5075888;28;20650;-77
2021/07/15 10:16:45;;;;;;;3.03;1.45;;;21.80;80.90;;;;;;5075340;28;20175;-75
2021/07/15 10:19:25;;;;;;;11.13;1.05;;;21.80;80.60;;;;;;5075208;28;20171;-77
2021/07/15 10:22:03;;;;;;;0.80;0.60;;;21.90;79.20;;;;;;5074714;28;20734;-75
2021/07/15 10:24:30;;;;;;;4.47;0.90;;;21.80;79.90;;;;;;5075527;28;20723;-76
2021/07/15 10:26:59;;;;;;;1.45;0.70;;;21.80;82.10;;;;;;5074546;28;20171;-76
2021/07/15 10:29:26;;;;;;;1.23;0.80;;;21.90;80.80;;;;;;5073058;28;20210;-77
2021/07/15 10:31:53;;;;;;;1.30;0.80;;;22.00;79.90;;;;;;5077321;28;20196;-77
2021/07/15 10:34:20;;;;;;;4.20;0.90;;;22.10;78.00;;;;;;5074339;28;20186;-77
2021/07/15 10:36:46;;;;;;;3.78;0.75;;;22.30;78.00;;;;;;5074143;28;20535;-77
2021/07/15 10:39:15;;;;;;;12.32;0.90;;;22.50;78.40;;;;;;5074410;28;20168;-77
2021/07/15 10:41:46;;;;;;;1.23;0.80;;;22.60;77.40;;;;;;5074350;28;20199;-77
2021/07/15 10:44:14;;;;;;;1.40;0.73;;;22.90;77.80;;;;;;5074446;28;20790;-77
2021/07/15 10:46:40;;;;;;;2.20;0.80;;;23.00;76.30;;;;;;5074304;28;20688;-77
2021/07/15 10:49:09;;;;;;;1.42;0.77;;;23.10;75.20;;;;;;5074272;28;20295;-77
2021/07/15 10:51:42;;;;;;;1.38;0.70;;;23.00;73.80;;;;;;5074229;28;20242;-77
2021/07/15 10:54:07;;;;;;;0.85;0.60;;;23.00;74.50;;;;;;5074675;28;20517;-77
2021/07/15 10:56:34;;;;;;;0.83;0.70;;;23.00;76.70;;;;;;5077966;28;20259;-76
2021/07/15 10:59:01;;;;;;;1.63;0.82;;;23.00;77.00;;;;;;5077926;28;20417;-76
2021/07/15 11:01:51;;;;;;;1.75;0.80;;;22.90;77.70;;;;;;5077853;28;20168;-76
2021/07/15 11:04:32;;;;;;;0.82;0.70;;;22.80;78.00;;;;;;5077891;28;20176;-76
2021/07/15 11:07:01;;;;;;;0.93;0.70;;;22.70;78.40;;;;;;5077677;28;20179;-76
2021/07/15 11:09:29;;;;;;;2.97;0.60;;;22.50;78.10;;;;;;5071039;22;20220;-84
2021/07/15 11:11:59;;;;;;;2.83;0.90;;;22.60;79.20;;;;;;5039859;28;20200;-84
2021/07/15 11:14:39;;;;;;;8.35;1.00;;;22.70;78.30;;;;;;5039872;28;20173;-83
2021/07/15 11:17:33;;;;;;;0.63;0.63;;;22.70;78.80;;;;;;5039311;28;20184;-84
2021/07/15 11:20:11;;;;;;;1.98;1.00;;;22.60;78.40;;;;;;5035605;28;20189;-84
2021/07/15 11:22:53;;;;;;;0.70;0.60;;;22.60;78.90;;;;;;5039599;28;20189;-83
2021/07/15 11:26:02;;;;;;;1.00;0.80;;;22.60;78.80;;;;;;5040293;28;20172;-84
2021/07/15 11:28:23;;;;;;;3.97;0.80;;;22.70;78.50;;;;;;5058648;28;20204;-84
2021/07/15 11:30:57;;;;;;;2.35;0.80;;;22.70;77.00;;;;;;5042613;28;20185;-84
2021/07/15 11:33:22;;;;;;;1.48;0.82;;;22.60;76.00;;;;;;5042235;28;20189;-85
2021/07/15 11:35:51;;;;;;;0.90;0.60;;;22.70;77.80;;;;;;5044041;28;20187;-85
2021/07/15 11:38:23;;;;;;;1.15;0.80;;;22.90;76.90;;;;;;5042045;28;20169;-85
2021/07/15 11:40:52;;;;;;;3.78;1.05;;;23.00;75.90;;;;;;5042258;28;20169;-85
2021/07/15 11:43:25;;;;;;;1.40;0.80;;;22.90;76.20;;;;;;5042430;28;20283;-85
2021/07/15 11:46:12;;;;;;;4.80;0.90;;;22.90;76.70;;;;;;5041875;28;20173;-85
2021/07/15 11:48:47;;;;;;;2.05;0.50;;;22.70;76.90;;;;;;5042194;28;20201;-85
2021/07/15 11:51:46;;;;;;;1.67;0.60;;;22.80;76.70;;;;;;5041569;28;20576;-85
2021/07/15 11:54:16;;;;;;;2.15;1.20;;;22.80;77.40;;;;;;5041345;28;20169;-85
2021/07/15 11:56:48;;;;;;;1.67;0.73;;;22.80;76.70;;;;;;5041340;28;20216;-85
2021/07/15 11:59:37;;;;;;;2.78;0.63;;;22.90;77.40;;;;;;5041333;28;20161;-85
2021/07/15 12:02:39;;;;;;;1.17;0.65;;;22.80;78.00;;;;;;5040836;28;20197;-85
2021/07/15 12:05:30;;;;;;;3.47;0.80;;;22.70;77.00;;;;;;5042960;28;20173;-85
2021/07/15 12:08:06;;;;;;;2.58;0.60;;;22.70;78.00;;;;;;5041913;28;20231;-85
2021/07/15 12:10:35;;;;;;;1.95;0.90;;;22.80;77.40;;;;;;5041461;28;20173;-85
2021/07/15 12:13:03;;;;;;;4.85;0.90;;;;;;;;;;5040255;28;20673;-86
2021/07/15 12:15:29;;;;;;;2.40;1.20;;;;;;;;;;5039199;28;20221;-85
2021/07/15 12:17:58;;;;;;;1.48;1.00;;;22.50;77.10;;;;;;5040547;28;20177;-85
2021/07/15 12:20:44;;;;;;;1.88;0.95;;;22.50;78.40;;;;;;5040097;28;20201;-85
2021/07/15 12:23:19;;;;;;;3.85;0.95;;;22.40;78.80;;;;;;5039779;28;20201;-86
2021/07/15 12:25:47;;;;;;;2.78;0.80;;;22.10;79.80;;;;;;5039619;28;20193;-84
2021/07/15 12:28:19;;;;;;;1.83;0.60;;;22.10;80.50;;;;;;5038215;28;20197;-84
2021/07/15 12:30:47;;;;;;;2.15;0.90;;;22.20;79.40;;;;;;5038471;28;20637;-84
2021/07/15 12:33:36;;;;;;;0.70;0.60;;;22.20;78.70;;;;;;5037760;28;20205;-84
2021/07/15 12:36:11;;;;;;;1.35;0.70;;;22.20;78.40;;;;;;5038048;28;20632;-84
2021/07/15 12:38:37;;;;;;;1.00;0.60;;;22.20;77.10;;;;;;5037981;28;20156;-85
2021/07/15 12:41:12;;;;;;;0.80;0.60;;;22.40;77.40;;;;;;5037840;28;20211;-85
2021/07/15 12:43:44;;;;;;;1.42;0.80;;;22.40;76.40;;;;;;5038476;28;20252;-84
2021/07/15 12:46:23;;;;;;;2.80;0.73;;;22.40;76.60;;;;;;5040732;28;20165;-87
2021/07/15 12:48:55;;;;;;;5.20;0.95;;;22.50;77.00;;;;;;5042421;28;20609;-85
2021/07/15 12:51:26;;;;;;;2.35;1.02;;;22.70;76.30;;;;;;5042118;28;20169;-85
2021/07/15 12:53:53;;;;;;;3.72;0.63;;;22.80;75.30;;;;;;5040818;28;20283;-85
2021/07/15 12:56:27;;;;;;;1.30;0.70;;;23.10;73.80;;;;;;5037411;28;20529;-84
2021/07/15 12:59:02;;;;;;;1.75;1.02;;;23.30;75.20;;;;;;5037064;28;20188;-84
2021/07/15 13:01:29;;;;;;;1.10;0.80;;;23.20;74.90;;;;;;5037400;28;20196;-84
2021/07/15 13:04:13;;;;;;;2.28;0.60;;;23.20;75.30;;;;;;5037660;28;20636;-84
2021/07/15 13:06:47;;;;;;;0.85;0.57;;;23.10;73.80;;;;;;5037743;28;20319;-85